Aeroporto :
LOGIN :

Iscrizione | Disclaimer

   EN    FR    IT 

 










Sommario :    VFR   VFR Marginale   IFR   IFR Intensivo   IFR Molto Intensivo
Visibilità : 
Base nubi : 
>= 8 km
>= 3000ft
5 / 8 km
1000 / 3000 ft
1500m / 5 km
500 / 1000 ft
800 / 1500m
200 / 500 ft
< 800m
< 200 ft
Simboli :   Temporali  Nebbia  Neve Forte  Precipitazioni Forti  Vento > 20 kt
SIGMETs :   Varie  Temporali  Ghiacco  Turbolenza  Onda orograficha  Ceneri Vulcaniche







- Altitudine del aeroporto : 126 ft
- Codice IATA : WIC
- Carte del aeroporto


EGPC - Wick

ULTIMO METAR :
  • 231920Z AUTO 22004KT 9999 NCD 16/13 Q1016

METARs OBSOLETI :
  • 231850Z 23007KT 9999 FEW010 16/13 Q1016
  • 231820Z 21005KT 180V250 9999 FEW010 16/13 Q1017
  • 231750Z 21007KT 9999 FEW010 17/13 Q1016
  • 231720Z 21007KT 180V240 9999 FEW010 17/13 Q1016
  • 231650Z 22008KT 9999 FEW010 17/13 Q1016
  • 231620Z 22010KT 9999 FEW010 17/13 Q1016

TAF TAF EGPC
Valido dal 23 a 18 ore il 24 a 03 ore UTC


231702Z 2318/2403 19009KT 9999 FEW020
ATIS : +44 1955 607 596
Nessun NOTAM noto per questo aeroporto.



MetMap, La meteo Aeronautica in un colpo d'occhio ! - Copyright ORBIFLY Dicembre 2007 - Disclaimer

ORBIFLY MET'MAP TEAM :

Programmazione e sviluppo : Alexandra Zaïnal
Concezione e sviluppo : Baudouin d'Aumeries
Co-Programmazione e sviluppo : Marc-Olivier Méhu
Supporto tecnico e logistico : Manuel Goepfert
Aiuto per la traduzione : Arnaldo La Scala

Contatto : metmap@orbifly.com




FONTI E CREDITI :

   NOAA